Time;durP1;ratioP1;P1;durP2;ratioP2;P2;SDS_P1;SDS_P2;PMS_P1;PMS_P2;Temp;Humidity;BMP_temperature;BMP_pressure;BME280_temperature;BME280_humidity;BME280_pressure;Samples;Min_cycle;Max_cycle;Signal;HPM_P1;HPM_P2
2022/11/01 00:01:20;;;;;;;;;;;;;;;15.42;64.03;99317.25;4487154;32;20251;-84
2022/11/01 00:03:45;;;;;;;;;;;;;;;15.41;64.21;99310.22;4487032;32;20333;-84
2022/11/01 00:06:10;;;;;;;;;;;;;;;15.41;64.11;99304.06;4487123;32;20295;-84
2022/11/01 00:08:36;;;;;;;;;;;;;;;15.41;64.24;99304.06;4472799;32;20000;-84
2022/11/01 00:11:05;;;;;;;;;;;;;;;15.40;64.24;99294.41;4472575;32;19963;-84
2022/11/01 00:13:30;;;;;;;;;;;;;;;15.41;64.23;99304.06;4472850;32;20292;-84
2022/11/01 00:15:55;;;;;;;;;;;;;;;15.42;64.25;99297.81;4486915;32;20008;-84
2022/11/01 00:18:20;;;;;;;;;;;;;;;15.43;64.32;99300.37;4486991;32;19984;-84
2022/11/01 00:20:46;;;;;;;;;;;;;;;15.44;64.40;99295.91;4486933;32;19968;-84
2022/11/01 00:23:11;;;;;;;;;;;;;;;15.41;64.42;99288.97;4486760;32;19964;-84
2022/11/01 00:25:36;;;;;;;;;;;;;;;15.46;64.18;99291.34;4472489;32;19994;-84
2022/11/01 00:28:01;;;;;;;;;;;;;;;15.42;64.29;99298.66;4486559;32;20010;-84
2022/11/01 00:30:27;;;;;;;;;;;;;;;15.41;64.37;99304.91;4486705;32;19982;-84
2022/11/01 00:32:52;;;;;;;;;;;;;;;15.39;64.50;99290.03;4472304;32;20014;-84
2022/11/01 00:35:17;;;;;;;;;;;;;;;15.40;64.47;99289.09;4486544;32;20240;-84
2022/11/01 00:37:43;;;;;;;;;;;;;;;15.36;64.61;99292.91;4486675;32;19999;-84
2022/11/01 00:40:08;;;;;;;;;;;;;;;15.39;64.51;99287.38;4486537;32;19967;-84
2022/11/01 00:42:34;;;;;;;;;;;;;;;15.36;64.53;99288.44;4488277;32;20008;-84
2022/11/01 00:44:59;;;;;;;;;;;;;;;15.38;64.46;99299.81;4488545;32;19972;-84
2022/11/01 00:47:24;;;;;;;;;;;;;;;15.37;64.35;99290.13;4488645;32;19998;-84
2022/11/01 00:49:49;;;;;;;;;;;;;;;15.37;64.35;99286.63;4488276;32;19964;-84
2022/11/01 00:52:15;;;;;;;;;;;;;;;15.38;64.23;99283.03;4488360;32;19968;-84
2022/11/01 00:54:40;;;;;;;;;;;;;;;15.37;64.28;99281.31;4488405;32;19996;-84
2022/11/01 00:57:05;;;;;;;;;;;;;;;15.36;64.23;99285.78;4488581;32;19984;-84
2022/11/01 00:59:31;;;;;;;;;;;;;;;15.37;64.21;99287.47;4474156;32;20225;-84
2022/11/01 01:01:56;;;;;;;;;;;;;;;15.35;64.19;99278.78;4473999;32;20008;-84
2022/11/01 01:04:22;;;;;;;;;;;;;;;15.30;64.37;99278.25;4488426;32;20024;-84
2022/11/01 01:06:47;;;;;;;;;;;;;;;15.31;64.43;99272.81;4488333;32;20013;-84
2022/11/01 01:09:12;;;;;;;;;;;;;;;15.35;64.44;99270.81;4474010;32;19984;-84
2022/11/01 01:11:37;;;;;;;;;;;;;;;15.32;64.58;99271.88;4474059;32;19972;-84
2022/11/01 01:14:03;;;;;;;;;;;;;;;15.34;64.52;99266.47;4488322;32;20023;-84
2022/11/01 01:16:28;;;;;;;;;;;;;;;15.32;64.62;99265.72;4461075;32;20315;-84
2022/11/01 01:18:54;;;;;;;;;;;;;;;15.27;64.71;99263.34;4474057;32;20004;-84
2022/11/01 01:21:19;;;;;;;;;;;;;;;15.28;64.78;99254.44;4488379;32;19976;-84
2022/11/01 01:23:47;;;;;;;;;;;;;;;15.30;64.70;99252.53;4473952;32;19987;-84
2022/11/01 01:26:12;;;;;;;;;;;;;;;15.30;64.55;99246.41;4474334;32;20007;-84
2022/11/01 01:28:37;;;;;;;;;;;;;;;15.26;64.65;99245.75;4488028;32;19993;-84
2022/11/01 01:31:06;;;;;;;;;;;;;;;15.25;64.78;99254.66;4474014;32;19968;-84
2022/11/01 01:33:31;;;;;;;;;;;;;;;15.28;64.70;99256.25;4473982;32;20039;-84
2022/11/01 01:35:59;;;;;;;;;;;;;;;15.32;64.66;99252.44;4488228;32;20020;-84
2022/11/01 01:38:24;;;;;;;;;;;;;;;15.33;64.60;99248.81;4488171;32;19978;-84
2022/11/01 01:40:49;;;;;;;;;;;;;;;15.33;64.62;99248.81;4487902;32;20308;-84
2022/11/01 01:43:14;;;;;;;;;;;;;;;15.32;64.62;99239.19;4474032;32;20326;-84
2022/11/01 01:45:40;;;;;;;;;;;;;;;15.29;64.75;99236.72;4473756;32;20003;-84
2022/11/01 01:48:08;;;;;;;;;;;;;;;15.34;64.58;99243.41;4473906;32;20318;-84
2022/11/01 01:50:37;;;;;;;;;;;;;;;15.31;64.79;99250.72;4473781;32;19971;-84
2022/11/01 01:53:04;;;;;;;;;;;;;;;15.29;64.87;99244.69;4487424;32;20016;-84
2022/11/01 01:55:40;;;;;;;;;;;;;;;15.32;64.90;99247.13;4460727;32;19983;-83
2022/11/01 01:58:06;;;;;;;;;;;;;;;15.36;64.85;99237.16;4473905;32;20335;-84
2022/11/01 02:00:31;;;;;;;;;;;;;;;15.40;64.68;99230.69;4488048;32;19963;-84
2022/11/01 02:02:56;;;;;;;;;;;;;;;15.35;64.75;99233.66;4473831;32;20029;-84
2022/11/01 02:05:22;;;;;;;;;;;;;;;15.39;64.62;99235.12;4487933;32;20284;-84
2022/11/01 02:07:47;;;;;;;;;;;;;;;15.40;64.58;99234.19;4488080;32;19994;-84
2022/11/01 02:10:13;;;;;;;;;;;;;;;15.41;64.65;99230.56;4487914;32;20013;-84
2022/11/01 02:12:42;;;;;;;;;;;;;;;15.44;64.54;99233.03;4460509;32;19983;-84
2022/11/01 02:15:12;;;;;;;;;;;;;;;15.46;64.52;99232.94;4473699;32;20006;-84
2022/11/01 02:17:40;;;;;;;;;;;;;;;15.45;64.43;99218.81;4487855;32;19986;-84
2022/11/01 02:20:10;;;;;;;;;;;;;;;15.45;64.36;99215.28;4473533;32;20032;-84
2022/11/01 02:22:42;;;;;;;;;;;;;;;15.43;64.46;99223.37;4473645;32;20349;-84
2022/11/01 02:25:29;;;;;;;;;;;;;;;15.44;64.29;99226.88;4473575;32;20268;-84
2022/11/01 02:28:03;;;;;;;;;;;;;;;15.43;64.22;99236.66;4470790;32;19967;-84
2022/11/01 02:30:33;;;;;;;;;;;;;;;15.43;64.19;99226.03;4472118;32;19982;-84
2022/11/01 02:33:01;;;;;;;;;;;;;;;15.44;64.18;99224.22;4470793;32;19984;-84
2022/11/01 02:35:41;;;;;;;;;;;;;;;15.42;64.21;99216.34;4470834;32;20057;-84
2022/11/01 02:38:07;;;;;;;;;;;;;;;15.42;64.30;99216.34;4470959;32;19987;-84
2022/11/01 02:40:32;;;;;;;;;;;;;;;15.42;64.31;99212.84;4470972;32;19995;-84
2022/11/01 02:43:00;;;;;;;;;;;;;;;15.43;64.19;99209.22;4472059;32;19973;-84
2022/11/01 02:45:28;;;;;;;;;;;;;;;15.43;64.25;99203.91;4472099;32;20272;-84
2022/11/01 02:47:56;;;;;;;;;;;;;;;15.41;64.24;99193.41;4457862;32;20335;-84
2022/11/01 02:50:22;;;;;;;;;;;;;;;15.39;64.45;99197.12;4470974;32;19972;-84
2022/11/01 02:52:47;;;;;;;;;;;;;;;15.33;64.62;99196.56;4470770;32;19990;-84
2022/11/01 02:55:28;;;;;;;;;;;;;;;15.34;64.54;99202.75;4470765;32;19984;-84
2022/11/01 02:57:53;;;;;;;;;;;;;;;15.31;64.61;99209.09;4470922;32;20013;-84
2022/11/01 03:00:20;;;;;;;;;;;;;;;15.18;65.06;99210.03;4470807;32;20269;-84
2022/11/01 03:02:45;;;;;;;;;;;;;;;15.25;64.76;99206.03;4470821;32;19981;-84
2022/11/01 03:05:16;;;;;;;;;;;;;;;15.17;64.68;99205.69;4471961;32;20330;-84
2022/11/01 03:07:43;;;;;;;;;;;;;;;15.14;64.77;99212.03;4471942;32;19988;-84
2022/11/01 03:10:09;;;;;;;;;;;;;;;15.16;64.67;99217.25;4471835;32;19960;-84
2022/11/01 03:12:35;;;;;;;;;;;;;;;15.16;64.59;99214.59;4471839;32;19991;-84
2022/11/01 03:15:02;;;;;;;;;;;;;;;15.16;64.57;99211.94;4472012;32;19981;-84
2022/11/01 03:17:46;;;;;;;;;;;;;;;15.17;64.47;99211.84;4470655;32;19972;-84
2022/11/01 03:20:14;;;;;;;;;;;;;;;15.12;64.51;99214.81;4471759;32;20319;-84
2022/11/01 03:22:43;;;;;;;;;;;;;;;15.10;64.51;99214.06;4471832;32;19976;-84
2022/11/01 03:28:00;;;;;;;;;;;;;;;15.05;64.50;99218.81;4482008;32;19979;-84
2022/11/01 03:30:25;;;;;;;;;;;;;;;15.10;64.49;99214.06;4473242;32;20025;-84
2022/11/01 03:32:52;;;;;;;;;;;;;;;15.10;64.27;99219.38;4487319;32;19976;-84
2022/11/01 03:35:18;;;;;;;;;;;;;;;15.08;64.12;99223.06;4473276;32;19995;-84
2022/11/01 03:37:44;;;;;;;;;;;;;;;15.08;64.09;99218.59;4460024;32;19991;-84
2022/11/01 03:40:09;;;;;;;;;;;;;;;15.05;64.20;99223.28;4473185;32;19985;-84
2022/11/01 03:42:35;;;;;;;;;;;;;;;15.02;64.21;99219.00;4473150;32;19980;-84
2022/11/01 03:45:02;;;;;;;;;;;;;;;15.01;64.42;99209.37;4473047;32;20036;-84
2022/11/01 03:47:28;;;;;;;;;;;;;;;15.01;64.26;99212.03;4473129;32;20070;-84
2022/11/01 03:50:12;;;;;;;;;;;;;;;14.97;64.54;99212.31;4473150;32;19972;-84
2022/11/01 03:52:37;;;;;;;;;;;;;;;14.88;64.93;99224.37;4472795;32;20007;-84
2022/11/01 03:55:16;;;;;;;;;;;;;;;14.67;65.54;99211.56;4487182;32;20326;-84
2022/11/01 03:57:42;;;;;;;;;;;;;;;14.83;65.36;99213.22;4487217;32;20062;-84
2022/11/01 04:00:07;;;;;;;;;;;;;;;14.86;65.27;99213.88;4472916;32;19968;-84
2022/11/01 04:02:33;;;;;;;;;;;;;;;14.87;65.37;99206.75;4487101;32;19968;-84
2022/11/01 04:04:58;;;;;;;;;;;;;;;14.88;65.46;99195.22;4487257;32;19980;-84
2022/11/01 04:07:23;;;;;;;;;;;;;;;14.89;65.38;99196.88;4459672;32;20034;-84
2022/11/01 04:09:49;;;;;;;;;;;;;;;14.87;65.43;99193.50;4486966;32;20000;-84
2022/11/01 04:12:14;;;;;;;;;;;;;;;14.86;65.47;99183.84;4486940;32;20363;-84
2022/11/01 04:22:51;;;;;;;;;;;;;;;14.83;65.70;99184.87;4486873;32;20358;-84
2022/11/01 04:25:16;;;;;;;;;;;;;;;14.79;65.79;99182.53;4486898;32;19980;-84
2022/11/01 04:27:41;;;;;;;;;;;;;;;14.79;65.85;99177.25;4486586;32;19964;-84
2022/11/01 04:30:07;;;;;;;;;;;;;;;14.84;65.65;99181.28;4472457;32;19972;-84
2022/11/01 04:32:32;;;;;;;;;;;;;;;14.84;65.73;99191.91;4486659;32;20016;-84
2022/11/01 04:34:57;;;;;;;;;;;;;;;14.83;65.73;99194.66;4486708;32;19983;-84
2022/11/01 04:37:23;;;;;;;;;;;;;;;14.84;65.63;99188.41;4486660;32;19979;-84
2022/11/01 04:39:48;;;;;;;;;;;;;;;14.84;65.51;99191.06;4486632;32;19968;-84
2022/11/01 04:42:14;;;;;;;;;;;;;;;14.84;65.57;99180.44;4486632;32;19991;-84
2022/11/01 04:44:39;;;;;;;;;;;;;;;14.83;65.46;99171.63;4472437;32;19983;-84
2022/11/01 04:47:04;;;;;;;;;;;;;;;14.81;65.51;99173.53;4486545;32;19982;-84
2022/11/01 04:49:30;;;;;;;;;;;;;;;14.75;65.71;99192.50;4472243;32;20015;-84
2022/11/01 04:51:55;;;;;;;;;;;;;;;14.79;65.58;99185.19;4486334;32;19968;-84
2022/11/01 04:54:20;;;;;;;;;;;;;;;14.81;65.54;99181.47;4486428;32;19990;-84
2022/11/01 04:56:46;;;;;;;;;;;;;;;14.83;65.50;99186.69;4486460;32;19968;-84
2022/11/01 04:59:11;;;;;;;;;;;;;;;14.86;65.32;99186.50;4486328;32;19983;-84
2022/11/01 05:01:36;;;;;;;;;;;;;;;14.85;65.38;99185.63;4486395;32;20027;-84
2022/11/01 05:04:01;;;;;;;;;;;;;;;14.83;65.37;99186.69;4486359;32;20360;-84
2022/11/01 05:06:28;;;;;;;;;;;;;;;14.82;65.36;99185.00;4472040;32;19978;-84
2022/11/01 05:08:53;;;;;;;;;;;;;;;14.84;65.32;99183.09;4472179;32;20240;-84
2022/11/01 05:11:24;;;;;;;;;;;;;;;14.86;65.30;99189.16;4486023;32;20005;-84
2022/11/01 05:13:49;;;;;;;;;;;;;;;14.86;65.30;99184.69;4486178;32;19987;-84
2022/11/01 05:16:14;;;;;;;;;;;;;;;14.87;65.12;99182.88;4486085;32;20300;-84
2022/11/01 05:18:41;;;;;;;;;;;;;;;14.84;65.13;99183.09;4486068;32;20319;-84
2022/11/01 05:21:06;;;;;;;;;;;;;;;14.82;65.03;99180.53;4471784;32;20055;-84
2022/11/01 05:23:31;;;;;;;;;;;;;;;14.82;64.93;99172.59;4471664;32;20000;-84
2022/11/01 05:25:56;;;;;;;;;;;;;;;14.83;64.93;99174.28;4485953;32;19979;-84
2022/11/01 05:28:22;;;;;;;;;;;;;;;14.83;65.11;99176.09;4486764;32;19971;-84
2022/11/01 05:30:47;;;;;;;;;;;;;;;14.74;65.35;99167.78;4488150;32;19982;-84
2022/11/01 05:33:13;;;;;;;;;;;;;;;14.73;65.40;99170.53;4473968;32;20040;-84
2022/11/01 05:35:38;;;;;;;;;;;;;;;14.74;65.29;99174.91;4474024;32;20012;-84
2022/11/01 05:38:04;;;;;;;;;;;;;;;14.75;65.30;99171.28;4474074;32;19972;-84
2022/11/01 05:40:29;;;;;;;;;;;;;;;14.75;65.20;99174.78;4488105;32;19975;-84
2022/11/01 05:42:55;;;;;;;;;;;;;;;14.70;65.50;99178.72;4488166;32;20003;-84
2022/11/01 05:45:20;;;;;;;;;;;;;;;14.68;65.48;99176.16;4488151;32;20318;-84
2022/11/01 05:47:45;;;;;;;;;;;;;;;14.67;65.67;99187.69;4473903;32;19989;-84
2022/11/01 05:50:11;;;;;;;;;;;;;;;14.28;66.58;99191.94;4473763;32;19990;-84
2022/11/01 05:52:36;;;;;;;;;;;;;;;14.62;65.91;99181.84;4488106;32;19972;-84
2022/11/01 05:55:02;;;;;;;;;;;;;;;14.69;65.74;99179.66;4473824;32;19968;-84
2022/11/01 05:57:27;;;;;;;;;;;;;;;14.70;65.72;99184.84;4473941;32;20050;-84
2022/11/01 05:59:53;;;;;;;;;;;;;;;14.75;65.60;99187.19;4487996;32;19968;-84
2022/11/01 06:02:18;;;;;;;;;;;;;;;14.74;65.68;99180.19;4473760;32;20335;-84
2022/11/01 06:04:43;;;;;;;;;;;;;;;14.75;65.55;99185.37;4473721;32;20348;-84
2022/11/01 06:07:08;;;;;;;;;;;;;;;14.78;65.48;99184.34;4473671;32;20243;-84
2022/11/01 06:09:34;;;;;;;;;;;;;;;14.74;65.38;99188.16;4487978;32;20398;-84
2022/11/01 06:11:59;;;;;;;;;;;;;;;14.76;65.35;99188.91;4487831;32;19994;-84
2022/11/01 06:14:24;;;;;;;;;;;;;;;14.79;65.16;99194.00;4487999;32;20014;-84
2022/11/01 06:16:49;;;;;;;;;;;;;;;14.81;65.14;99193.91;4460465;32;19971;-84
2022/11/01 06:19:14;;;;;;;;;;;;;;;14.83;64.70;99199.97;4487885;32;19978;-84
2022/11/01 06:21:40;;;;;;;;;;;;;;;14.74;64.75;99199.63;4487775;32;19995;-84
2022/11/01 06:24:05;;;;;;;;;;;;;;;14.76;64.78;99196.88;4487758;32;19999;-84
2022/11/01 06:26:30;;;;;;;;;;;;;;;14.79;64.75;99190.50;4460267;32;20352;-84
2022/11/01 06:28:58;;;;;;;;;;;;;;;14.81;64.64;99199.22;4487956;32;20259;-84
2022/11/01 06:31:24;;;;;;;;;;;;;;;14.82;64.71;99191.16;4460513;32;19992;-84
2022/11/01 06:33:49;;;;;;;;;;;;;;;14.84;64.51;99196.38;4487759;32;19964;-84
2022/11/01 06:36:14;;;;;;;;;;;;;;;14.85;64.44;99198.88;4473352;32;20330;-84
2022/11/01 06:38:39;;;;;;;;;;;;;;;14.84;64.40;99202.50;4487635;32;20006;-84
2022/11/01 06:41:05;;;;;;;;;;;;;;;14.82;64.44;99203.56;4487743;32;20320;-84
2022/11/01 06:43:30;;;;;;;;;;;;;;;14.83;64.38;99198.16;4487762;32;19972;-84
2022/11/01 06:45:58;;;;;;;;;;;;;;;14.83;64.40;99203.44;4487777;32;19972;-84
2022/11/01 06:48:23;;;;;;;;;;;;;;;14.80;64.49;99203.66;4487631;32;19972;-84
2022/11/01 06:50:48;;;;;;;;;;;;;;;14.74;64.71;99206.72;4460522;32;20021;-84
2022/11/01 06:53:14;;;;;;;;;;;;;;;14.81;64.57;99207.16;4488029;32;20033;-84
2022/11/01 06:55:39;;;;;;;;;;;;;;;14.83;64.52;99199.97;4473634;32;19978;-84
2022/11/01 06:58:04;;;;;;;;;;;;;;;14.87;64.51;99212.94;4487936;32;20015;-84
2022/11/01 07:00:30;;;;;;;;;;;;;;;14.95;64.33;99215.09;4487965;32;19975;-84
2022/11/01 07:02:59;;;;;;;;;;;;;;;14.91;64.25;99210.91;4487903;32;20008;-84
2022/11/01 07:05:24;;;;;;;;;;;;;;;14.91;64.41;99210.91;4487909;32;20012;-84
2022/11/01 07:07:49;;;;;;;;;;;;;;;14.99;64.16;99215.72;4487820;32;20012;-84
2022/11/01 07:10:15;;;;;;;;;;;;;;;14.93;64.05;99209.88;4487856;32;19980;-84
2022/11/01 07:12:40;;;;;;;;;;;;;;;14.95;64.17;99215.09;4487719;32;19967;-84
2022/11/01 07:15:05;;;;;;;;;;;;;;;14.90;64.17;99210.06;4487761;32;20205;-84
2022/11/01 07:17:30;;;;;;;;;;;;;;;14.93;64.04;99217.84;4487801;32;19986;-84
2022/11/01 07:19:56;;;;;;;;;;;;;;;14.96;64.08;99218.59;4473596;32;19975;-84
2022/11/01 07:22:21;;;;;;;;;;;;;;;14.94;64.32;99208.06;4487762;32;19968;-84
2022/11/01 07:24:46;;;;;;;;;;;;;;;14.99;64.33;99211.28;4487677;32;20067;-84
2022/11/01 07:27:11;;;;;;;;;;;;;;;15.03;64.13;99206.63;4487583;32;19964;-84
2022/11/01 07:29:40;;;;;;;;;;;;;;;15.03;64.19;99217.22;4487714;32;20020;-84
2022/11/01 07:32:05;;;;;;;;;;;;;;;15.00;64.15;99214.78;4487552;32;19964;-84
2022/11/01 07:34:30;;;;;;;;;;;;;;;15.01;64.20;99221.75;4473436;32;19982;-84
2022/11/01 07:36:56;;;;;;;;;;;;;;;15.00;64.22;99218.25;4473224;32;20320;-84
2022/11/01 07:39:21;;;;;;;;;;;;;;;15.00;64.19;99220.91;4487631;32;20331;-84
2022/11/01 07:41:47;;;;;;;;;;;;;;;15.03;64.11;99225.19;4487618;32;19964;-84
2022/11/01 07:44:12;;;;;;;;;;;;;;;15.03;64.02;99226.03;4487563;32;19964;-84
2022/11/01 07:46:37;;;;;;;;;;;;;;;14.92;64.22;99220.56;4473447;32;20027;-84
2022/11/01 07:49:02;;;;;;;;;;;;;;;14.99;64.01;99221.88;4487576;32;19992;-84
2022/11/01 07:51:28;;;;;;;;;;;;;;;15.02;64.03;99220.81;4486410;32;20004;-84
2022/11/01 07:53:53;;;;;;;;;;;;;;;15.03;64.02;99220.72;4473230;32;20015;-83
2022/11/01 07:56:20;;;;;;;;;;;;;;;15.09;63.86;99219.47;4487527;32;19994;-83
2022/11/01 07:58:45;;;;;;;;;;;;;;;15.08;63.94;99221.25;4473122;32;20051;-84
2022/11/01 08:01:11;;;;;;;;;;;;;;;15.16;63.58;99228.72;4487371;32;20000;-84
2022/11/01 08:03:36;;;;;;;;;;;;;;;15.16;63.46;99223.41;4472968;32;20311;-84
2022/11/01 08:06:01;;;;;;;;;;;;;;;15.18;63.42;99216.19;4487362;32;19968;-84
2022/11/01 08:08:26;;;;;;;;;;;;;;;15.24;63.43;99220.22;4472985;32;20248;-84
2022/11/01 08:10:52;;;;;;;;;;;;;;;15.29;63.33;99215.47;4487138;32;19982;-84
2022/11/01 08:13:18;;;;;;;;;;;;;;;15.33;63.16;99211.66;4473010;32;20028;-84
2022/11/01 08:15:44;;;;;;;;;;;;;;;15.33;63.02;99201.88;4487179;32;19986;-84
2022/11/01 08:18:09;;;;;;;;;;;;;;;15.00;63.42;99215.59;4472810;32;19992;-84
2022/11/01 08:20:35;;;;;;;;;;;;;;;15.25;62.91;99209.53;4473002;32;19990;-84
2022/11/01 08:23:00;;;;;;;;;;;;;;;15.35;62.80;99207.09;4472489;32;19964;-84
2022/11/01 08:25:25;;;;;;;;;;;;;;;15.38;62.63;99204.25;4472720;32;19980;-84
2022/11/01 08:27:51;;;;;;;;;;;;;;;15.39;62.49;99202.44;4486848;32;19975;-84
2022/11/01 08:30:17;;;;;;;;;;;;;;;15.41;62.34;99203.19;4472932;32;19987;-84
2022/11/01 08:32:42;;;;;;;;;;;;;;;15.41;62.33;99206.69;4472600;32;20299;-84
2022/11/01 08:35:08;;;;;;;;;;;;;;;15.41;62.32;99209.31;4487009;32;20000;-84
2022/11/01 08:37:33;;;;;;;;;;;;;;;15.47;62.18;99221.34;4486887;32;20327;-84
2022/11/01 08:39:58;;;;;;;;;;;;;;;15.45;62.06;99213.50;4486905;32;19998;-84
2022/11/01 08:42:23;;;;;;;;;;;;;;;15.09;62.41;99227.44;4486871;32;19963;-84
2022/11/01 08:44:49;;;;;;;;;;;;;;;15.28;62.55;99227.06;4486847;32;19965;-84
2022/11/01 08:47:14;;;;;;;;;;;;;;;15.39;nan;99216.56;4486773;32;20007;-84
2022/11/01 08:49:39;;;;;;;;;;;;;;;14.90;63.58;99218.03;4486714;32;20023;-84
2022/11/01 08:52:05;;;;;;;;;;;;;;;15.20;62.85;99208.13;4486730;32;19990;-84
2022/11/01 08:54:30;;;;;;;;;;;;;;;15.32;62.60;99202.00;4486561;32;19987;-84
2022/11/01 08:56:55;;;;;;;;;;;;;;;15.35;62.63;99204.44;4486723;32;19980;-84
2022/11/01 08:59:21;;;;;;;;;;;;;;;15.40;62.72;99207.66;4486692;32;19972;-84
2022/11/01 09:01:46;;;;;;;;;;;;;;;15.50;62.47;99197.25;4486895;32;20236;-84
2022/11/01 09:04:12;;;;;;;;;;;;;;;15.50;62.44;99203.41;4488626;32;20000;-84
2022/11/01 09:06:37;;;;;;;;;;;;;;;15.55;62.37;99205.75;4488683;32;19998;-84
2022/11/01 09:09:03;;;;;;;;;;;;;;;15.61;62.11;99199.19;4488802;32;19964;-84
2022/11/01 09:11:29;;;;;;;;;;;;;;;15.70;61.84;99201.19;4474352;32;19983;-84
2022/11/01 09:13:56;;;;;;;;;;;;;;;15.74;61.90;99210.66;4488605;32;19972;-84
2022/11/01 09:16:21;;;;;;;;;;;;;;;15.80;61.71;99202.28;4474408;32;19996;-84
2022/11/01 09:18:47;;;;;;;;;;;;;;;15.83;61.54;99204.72;4488628;32;20269;-84
2022/11/01 09:21:13;;;;;;;;;;;;;;;15.87;61.37;99203.53;4488419;32;19972;-84
2022/11/01 09:23:38;;;;;;;;;;;;;;;15.92;61.15;99201.44;4474361;32;19984;-84
2022/11/01 09:26:04;;;;;;;;;;;;;;;15.97;61.07;99200.25;4474038;32;19988;-84
2022/11/01 09:28:30;;;;;;;;;;;;;;;15.96;61.15;99201.22;4488319;32;20043;-84
2022/11/01 09:30:55;;;;;;;;;;;;;;;15.99;60.93;99206.31;4473947;32;19972;-84
2022/11/01 09:33:22;;;;;;;;;;;;;;;15.99;60.76;99198.34;4460939;32;20236;-84
2022/11/01 09:35:51;;;;;;;;;;;;;;;15.99;60.59;99204.50;4461066;32;19995;-84
2022/11/01 09:38:16;;;;;;;;;;;;;;;16.01;60.63;99205.25;4488238;32;19972;-84
2022/11/01 09:40:45;;;;;;;;;;;;;;;16.03;60.70;99200.69;4473765;32;19995;-84
2022/11/01 09:43:12;;;;;;;;;;;;;;;16.04;60.78;99202.38;4488263;32;20542;-84
2022/11/01 09:45:37;;;;;;;;;;;;;;;16.08;60.75;99200.34;4473988;32;20002;-84
2022/11/01 09:48:02;;;;;;;;;;;;;;;16.08;60.69;99193.22;4473862;32;19972;-84
2022/11/01 09:50:37;;;;;;;;;;;;;;;16.15;60.45;99195.44;4473824;32;19972;-84
2022/11/01 09:53:02;;;;;;;;;;;;;;;16.13;60.41;99190.25;4473815;32;20331;-84
2022/11/01 09:55:37;;;;;;;;;;;;;;;16.15;60.32;99190.12;4475936;31;20027;-82
2022/11/01 09:58:04;;;;;;;;;;;;;;;16.14;60.34;99199.91;4493319;31;20039;-82
2022/11/01 10:00:32;;;;;;;;;;;;;;;16.02;60.50;99200.78;4480722;31;20027;-83
2022/11/01 10:03:03;;;;;;;;;;;;;;;16.07;60.61;99203.94;4475764;32;20040;-83
2022/11/01 10:05:47;;;;;;;;;;;;;;;16.10;60.54;99196.62;4488127;32;19994;-82
2022/11/01 10:08:16;;;;;;;;;;;;;;;16.12;60.37;99191.19;4488009;32;20275;-83
2022/11/01 10:10:42;;;;;;;;;;;;;;;16.10;60.50;99187.81;4473842;32;19980;-81
2022/11/01 10:13:25;;;;;;;;;;;;;;;16.13;60.44;99184.94;4487777;32;19979;-83
2022/11/01 10:15:55;;;;;;;;;;;;;;;16.15;60.32;99182.16;4487968;32;19991;-83
2022/11/01 10:18:27;;;;;;;;;;;;;;;16.17;59.98;99182.88;4473738;32;20330;-83
2022/11/01 10:20:56;;;;;;;;;;;;;;;16.14;60.21;99186.63;4487944;32;19971;-83
2022/11/01 10:23:25;;;;;;;;;;;;;;;16.15;60.35;99177.69;4460513;32;20035;-83
2022/11/01 10:25:53;;;;;;;;;;;;;;;16.22;60.31;99183.41;4488021;32;20029;-83
2022/11/01 10:28:27;;;;;;;;;;;;;;;16.25;60.28;99177.87;4473764;32;19968;-83
2022/11/01 10:30:53;;;;;;;;;;;;;;;16.27;60.11;99175.97;4473576;32;19990;-83
2022/11/01 10:33:26;;;;;;;;;;;;;;;16.27;60.08;99182.12;4487852;32;19996;-81
2022/11/01 10:35:56;;;;;;;;;;;;;;;16.28;60.10;99173.22;4473580;32;19987;-83
2022/11/01 10:38:21;;;;;;;;;;;;;;;16.31;59.99;99175.63;4491362;31;20342;-83
2022/11/01 10:40:48;;;;;;;;;;;;;;;16.15;60.02;99177.69;4487679;32;19972;-83
2022/11/01 10:43:14;;;;;;;;;;;;;;;16.25;59.90;99178.72;4486735;32;19991;-83
2022/11/01 10:45:40;;;;;;;;;;;;;;;16.25;59.94;99175.22;4486640;32;19979;-83
2022/11/01 10:48:05;;;;;;;;;;;;;;;16.30;60.08;99168.63;4487742;31;19990;-83
2022/11/01 10:50:30;;;;;;;;;;;;;;;16.35;59.89;99170.09;4487690;32;20209;-83
2022/11/01 10:52:59;;;;;;;;;;;;;;;16.37;59.90;99168.19;4486395;32;19983;-83
2022/11/01 10:55:38;;;;;;;;;;;;;;;16.39;59.77;99172.41;4486756;32;20025;-84
2022/11/01 10:58:04;;;;;;;;;;;;;;;16.38;59.70;99167.19;4490346;31;19982;-82
2022/11/01 11:00:31;;;;;;;;;;;;;;;16.37;59.87;99176.16;4502213;31;19976;-81
2022/11/01 11:02:57;;;;;;;;;;;;;;;16.34;59.83;99174.56;4479637;32;20007;-80
2022/11/01 11:05:23;;;;;;;;;;;;;;;16.32;60.01;99171.16;4473548;32;19992;-80
2022/11/01 11:07:49;;;;;;;;;;;;;;;16.38;59.63;99172.50;4487682;32;19994;-81
2022/11/01 11:10:25;;;;;;;;;;;;;;;16.39;59.84;99166.25;4473439;32;19968;-80
2022/11/01 11:12:52;;;;;;;;;;;;;;;16.41;59.66;99167.00;4460410;32;19987;-80
2022/11/01 11:15:19;;;;;;;;;;;;;;;16.43;59.65;99159.75;4473358;32;19979;-81
2022/11/01 11:17:44;;;;;;;;;;;;;;;16.46;59.55;99164.84;4460295;32;19972;-81
2022/11/01 11:20:10;;;;;;;;;;;;;;;16.50;59.48;99155.69;4460131;32;19971;-81
2022/11/01 11:22:36;;;;;;;;;;;;;;;16.44;59.22;99161.47;4473230;32;19979;-81
2022/11/01 11:25:02;;;;;;;;;;;;;;;16.47;59.48;99155.91;4472617;32;20339;-80
2022/11/01 11:27:28;;;;;;;;;;;;;;;16.55;59.46;99153.53;4472469;32;20002;-80
2022/11/01 11:29:54;;;;;;;;;;;;;;;16.58;59.35;99152.47;4460020;32;19975;-81
2022/11/01 11:32:21;;;;;;;;;;;;;;;16.59;58.88;99143.50;4473118;32;19972;-81
2022/11/01 11:35:05;;;;;;;;;;;;;;;16.26;59.83;99148.53;4460113;32;19983;-81
2022/11/01 11:37:34;;;;;;;;;;;;;;;16.44;59.39;99140.19;4473231;32;20044;-80
2022/11/01 11:40:11;;;;;;;;;;;;;;;16.44;59.29;99138.38;4473018;32;20290;-81
2022/11/01 11:42:36;;;;;;;;;;;;;;;16.32;59.44;99139.25;4487352;32;20020;-81
2022/11/01 11:45:16;;;;;;;;;;;;;;;16.45;59.44;99142.72;4460023;32;20368;-81
2022/11/01 11:47:41;;;;;;;;;;;;;;;16.46;59.25;99139.09;4487257;32;19995;-81
2022/11/01 11:50:33;;;;;;;;;;;;;;;16.47;59.65;99143.44;4487336;32;19960;-80
2022/11/01 11:52:59;;;;;;;;;;;;;;;16.52;59.44;99137.81;4483477;32;19980;-81
2022/11/01 11:55:35;;;;;;;;;;;;;;;16.57;59.26;99132.97;4487615;32;19980;-81
2022/11/01 11:58:00;;;;;;;;;;;;;;;16.75;58.94;99137.94;4490150;31;19976;-80
2022/11/01 12:00:26;;;;;;;;;;;;;;;16.84;58.75;99130.13;4501774;31;19979;-81
2022/11/01 12:02:51;;;;;;;;;;;;;;;16.90;58.44;99127.00;4501743;31;20057;-81
2022/11/01 12:05:17;;;;;;;;;;;;;;;16.92;58.04;99131.34;4488525;31;20056;-81
2022/11/01 12:07:49;;;;;;;;;;;;;;;16.92;58.05;99129.56;4488608;31;19967;-81
2022/11/01 12:10:33;;;;;;;;;;;;;;;16.93;58.12;99131.25;4502885;31;20283;-80
2022/11/01 12:12:59;;;;;;;;;;;;;;;16.94;58.12;99126.75;4503006;31;19971;-81
2022/11/01 12:15:26;;;;;;;;;;;;;;;16.95;57.69;99128.47;4488624;31;20030;-81
2022/11/01 12:17:51;;;;;;;;;;;;;;;16.89;57.72;99124.47;4475496;31;19975;-80
2022/11/01 12:20:24;;;;;;;;;;;;;;;16.88;57.88;99128.06;4488297;31;20007;-81
2022/11/01 12:22:49;;;;;;;;;;;;;;;16.88;57.93;99122.75;4488437;31;20558;-81
2022/11/01 12:25:19;;;;;;;;;;;;;;;16.87;57.92;99127.22;4502786;31;20041;-80
2022/11/01 12:27:50;;;;;;;;;;;;;;;16.89;57.91;99121.78;4488083;31;20349;-81
2022/11/01 12:30:19;;;;;;;;;;;;;;;16.86;57.80;99108.72;4502597;31;19986;-81
2022/11/01 12:32:49;;;;;;;;;;;;;;;16.86;58.03;99109.56;4488151;31;20038;-81
2022/11/01 12:35:20;;;;;;;;;;;;;;;16.31;58.75;99109.16;4488175;31;19991;-81
2022/11/01 12:38:04;;;;;;;;;;;;;;;16.68;58.11;99108.25;4503309;31;20032;-81
2022/11/01 12:40:31;;;;;;;;;;;;;;;16.78;58.08;99097.78;4504409;31;19999;-82
2022/11/01 12:43:02;;;;;;;;;;;;;;;16.80;58.36;99098.50;4490111;31;20458;-81
2022/11/01 12:45:29;;;;;;;;;;;;;;;16.82;58.19;99096.59;4490120;31;20376;-82
2022/11/01 12:47:56;;;;;;;;;;;;;;;16.84;57.93;99100.00;4504466;31;20292;-82
2022/11/01 12:50:22;;;;;;;;;;;;;;;16.88;57.68;99088.16;4490075;31;20345;-82
2022/11/01 12:53:07;;;;;;;;;;;;;;;16.92;57.34;99091.44;4489935;31;20000;-81
2022/11/01 12:55:34;;;;;;;;;;;;;;;16.92;57.35;99091.44;4479331;32;20089;-82
2022/11/01 12:58:00;;;;;;;;;;;;;;;16.90;56.71;99081.78;4461072;32;19972;-82